createdAt,value
2023-04-23T00:01:46.872Z,14.76
2023-04-23T00:04:19.562Z,14.76
2023-04-23T00:06:49.789Z,14.79
2023-04-23T00:09:20.970Z,14.77
2023-04-23T00:11:50.887Z,14.69
2023-04-23T00:14:20.785Z,14.60
2023-04-23T00:16:53.963Z,14.73
2023-04-23T00:19:24.269Z,14.74
2023-04-23T00:21:53.670Z,14.78
2023-04-23T00:24:22.994Z,14.85
2023-04-23T00:26:53.898Z,14.78
2023-04-23T00:29:23.424Z,14.80
2023-04-23T00:31:54.384Z,14.68
2023-04-23T00:34:24.146Z,14.73
2023-04-23T00:36:53.912Z,14.66
2023-04-23T00:39:23.704Z,14.65
2023-04-23T00:41:54.616Z,14.58
2023-04-23T00:44:24.329Z,14.56
2023-04-23T00:46:56.331Z,14.45
2023-04-23T00:49:26.298Z,14.39
2023-04-23T00:51:56.902Z,14.42
2023-04-23T00:54:26.256Z,14.42
2023-04-23T00:57:01.953Z,14.50
2023-04-23T00:59:31.678Z,14.59
2023-04-23T01:02:08.668Z,14.35
2023-04-23T01:04:39.474Z,14.38
2023-04-23T01:07:08.801Z,14.43
2023-04-23T01:09:56.881Z,14.42
2023-04-23T01:12:26.371Z,14.24
2023-04-23T01:14:55.729Z,14.23
2023-04-23T01:17:26.866Z,14.24
2023-04-23T01:19:56.479Z,14.25
2023-04-23T01:22:27.563Z,14.18
2023-04-23T01:24:59.507Z,14.28
2023-04-23T01:27:30.588Z,14.26
2023-04-23T01:30:00.796Z,14.29
2023-04-23T01:32:30.380Z,14.28
2023-04-23T01:34:59.904Z,14.36
2023-04-23T01:37:31.531Z,14.21
2023-04-23T01:40:01.474Z,14.12
2023-04-23T01:43:09.982Z,14.16
2023-04-23T01:45:39.675Z,14.10
2023-04-23T01:48:09.016Z,14.10
2023-04-23T01:51:29.388Z,14.08
2023-04-23T01:58:32.070Z,14.17
2023-04-23T02:01:01.304Z,14.18
2023-04-23T02:03:34.084Z,14.27
2023-04-23T02:06:05.078Z,14.18
2023-04-23T02:08:42.710Z,13.14
2023-04-23T02:11:11.914Z,12.59
2023-04-23T02:13:42.828Z,12.27
2023-04-23T02:16:13.104Z,12.13
2023-04-23T02:18:42.543Z,12.18
2023-04-23T02:21:13.213Z,12.14
2023-04-23T02:23:49.953Z,12.10
2023-04-23T02:26:20.121Z,12.08
2023-04-23T02:28:51.218Z,11.94
2023-04-23T02:31:21.490Z,11.88
2023-04-23T02:33:53.638Z,11.69
2023-04-23T02:36:23.496Z,11.62
2023-04-23T02:38:53.929Z,11.33
2023-04-23T02:41:25.484Z,11.32
2023-04-23T02:43:56.286Z,11.13
2023-04-23T02:46:26.422Z,11.40
2023-04-23T02:48:56.916Z,11.17
2023-04-23T02:51:27.538Z,11.31
2023-04-23T02:54:07.828Z,11.26
2023-04-23T02:56:37.681Z,11.28
2023-04-23T02:59:11.464Z,11.29
2023-04-23T03:01:41.633Z,11.26
2023-04-23T03:04:13.845Z,11.21
2023-04-23T03:06:44.393Z,10.99
2023-04-23T03:09:13.976Z,11.07
2023-04-23T03:11:51.480Z,11.20
2023-04-23T03:14:22.247Z,11.17
2023-04-23T03:16:58.030Z,11.31
2023-04-23T03:19:27.550Z,11.26
2023-04-23T03:21:56.929Z,11.18
2023-04-23T03:24:26.153Z,11.14
2023-04-23T03:27:11.128Z,11.17
2023-04-23T03:29:41.884Z,10.86
2023-04-23T03:32:11.447Z,10.96
2023-04-23T03:34:41.204Z,10.98
2023-04-23T03:37:13.217Z,11.13
2023-04-23T03:39:43.700Z,10.94
2023-04-23T03:42:13.996Z,10.86
2023-04-23T03:44:46.960Z,10.80
2023-04-23T03:47:16.443Z,10.68
2023-04-23T03:49:46.075Z,10.79
2023-04-23T03:52:16.412Z,10.69
2023-04-23T03:54:46.104Z,10.60
2023-04-23T03:57:20.313Z,10.53
2023-04-23T04:00:11.824Z,10.46
2023-04-23T04:02:45.172Z,10.55
2023-04-23T04:05:16.358Z,10.48
2023-04-23T04:07:45.755Z,10.36
2023-04-23T04:10:50.195Z,10.14
2023-04-23T04:13:19.786Z,10.21
2023-04-23T04:15:50.706Z,10.12
2023-04-23T04:18:21.050Z,10.14
2023-04-23T04:20:56.844Z,10.20
2023-04-23T04:23:27.033Z,10.32
2023-04-23T04:25:57.702Z,10.33
2023-04-23T04:28:58.368Z,10.30
2023-04-23T04:31:29.259Z,10.11
2023-04-23T04:33:59.033Z,10.13
2023-04-23T04:36:28.973Z,10.16
2023-04-23T04:38:59.631Z,10.12
2023-04-23T04:41:29.020Z,10.23
2023-04-23T04:43:58.566Z,10.12
2023-04-23T04:46:31.951Z,10.37
2023-04-23T04:49:01.558Z,10.23
2023-04-23T04:51:30.790Z,10.24
2023-04-23T04:54:26.320Z,10.19
2023-04-23T04:56:55.573Z,10.02
2023-04-23T04:59:24.900Z,10.11
2023-04-23T05:01:57.733Z,10.03
2023-04-23T05:04:27.343Z,9.99
2023-04-23T05:06:58.106Z,10.20
2023-04-23T05:09:28.197Z,10.15
2023-04-23T05:11:59.703Z,10.09
2023-04-23T05:14:29.022Z,9.96
2023-04-23T05:17:01.215Z,10.07
2023-04-23T05:19:33.027Z,10.17
2023-04-23T05:22:03.850Z,10.15
2023-04-23T05:24:35.284Z,10.25
2023-04-23T05:27:04.868Z,10.20
2023-04-23T05:29:34.170Z,10.21
2023-04-23T05:32:05.195Z,10.34
2023-04-23T05:34:40.451Z,10.18
2023-04-23T05:37:11.032Z,10.31
2023-04-23T05:39:46.587Z,10.36
2023-04-23T05:42:16.052Z,10.15
2023-04-23T05:44:53.336Z,10.27
2023-04-23T05:47:25.035Z,10.21
2023-04-23T05:49:56.716Z,10.39
2023-04-23T05:52:26.170Z,10.21
2023-04-23T05:54:58.885Z,10.12
2023-04-23T05:57:29.187Z,10.31
2023-04-23T05:59:59.971Z,10.29
2023-04-23T06:02:31.301Z,10.23
2023-04-23T06:05:01.095Z,10.32
2023-04-23T06:07:31.861Z,10.16
2023-04-23T06:10:01.468Z,10.08
2023-04-23T06:12:33.312Z,10.27
2023-04-23T06:15:02.576Z,10.34
2023-04-23T06:17:49.674Z,10.66
2023-04-23T06:20:19.160Z,10.38
2023-04-23T06:22:50.874Z,10.34
2023-04-23T06:25:20.079Z,10.12
2023-04-23T06:27:50.016Z,10.39
2023-04-23T06:30:23.568Z,10.16
2023-04-23T06:33:06.378Z,10.05
2023-04-23T06:35:35.546Z,10.37
2023-04-23T06:38:04.747Z,10.58
2023-04-23T06:40:34.173Z,10.45
2023-04-23T06:43:05.651Z,10.65
2023-04-23T06:46:12.317Z,10.67
2023-04-23T06:48:42.977Z,10.91
2023-04-23T06:51:18.500Z,10.59
2023-04-23T06:53:49.258Z,10.34
2023-04-23T06:56:18.815Z,10.28
2023-04-23T06:58:48.161Z,10.37
2023-04-23T07:01:23.556Z,10.18
2023-04-23T07:03:54.792Z,10.18
2023-04-23T07:06:24.219Z,10.34
2023-04-23T07:08:54.738Z,10.65
2023-04-23T07:11:25.290Z,10.39
2023-04-23T07:13:54.635Z,10.64
2023-04-23T07:16:26.188Z,10.52
2023-04-23T07:18:59.403Z,10.84
2023-04-23T07:21:29.879Z,10.95
2023-04-23T07:28:27.697Z,10.63
2023-04-23T07:31:05.627Z,10.66
2023-04-23T07:43:41.713Z,10.67
2023-04-23T07:51:32.634Z,11.31
2023-04-23T07:58:28.263Z,11.63
2023-04-23T08:00:58.802Z,11.23
2023-04-23T08:03:29.987Z,11.42
2023-04-23T08:06:01.072Z,11.49
2023-04-23T08:08:30.287Z,12.06
2023-04-23T08:11:02.839Z,11.63
2023-04-23T08:14:40.810Z,12.31
2023-04-23T08:17:16.707Z,12.04
2023-04-23T08:20:03.730Z,12.06
2023-04-23T08:22:37.467Z,12.88
2023-04-23T08:25:08.880Z,12.94
2023-04-23T08:31:41.177Z,11.93
2023-04-23T08:34:15.062Z,12.39
2023-04-23T08:37:44.566Z,11.77
2023-04-23T08:40:14.301Z,11.70
2023-04-23T08:43:12.940Z,11.90
2023-04-23T08:45:43.255Z,12.22
2023-04-23T08:48:12.828Z,12.36
2023-04-23T08:50:44.902Z,12.93
2023-04-23T08:53:20.889Z,13.10
2023-04-23T08:55:51.795Z,13.13
2023-04-23T09:02:49.654Z,12.51
2023-04-23T09:05:21.865Z,12.30
2023-04-23T09:07:55.791Z,12.68
2023-04-23T09:10:25.241Z,12.86
2023-04-23T09:12:54.718Z,12.57
2023-04-23T09:15:24.175Z,13.33
2023-04-23T09:17:55.646Z,13.49
2023-04-23T09:20:27.334Z,13.50
2023-04-23T09:22:58.768Z,13.66
2023-04-23T09:25:28.762Z,13.82
2023-04-23T09:28:01.385Z,13.18
2023-04-23T09:30:32.270Z,13.71
2023-04-23T09:33:02.070Z,13.09
2023-04-23T09:35:35.585Z,14.02
2023-04-23T09:38:10.508Z,14.43
2023-04-23T09:40:39.790Z,14.06
2023-04-23T09:43:12.715Z,14.02
2023-04-23T09:45:50.927Z,13.94
2023-04-23T09:48:21.980Z,14.62
2023-04-23T09:50:51.554Z,15.00
2023-04-23T09:53:23.334Z,14.43
2023-04-23T09:55:54.971Z,14.24
2023-04-23T09:58:28.864Z,15.20
2023-04-23T10:01:09.181Z,14.92
2023-04-23T10:03:43.192Z,15.45
2023-04-23T10:06:25.763Z,15.24
2023-04-23T10:09:08.008Z,14.81
2023-04-23T10:11:42.746Z,14.73
2023-04-23T10:14:12.533Z,15.33
2023-04-23T10:16:49.097Z,15.91
2023-04-23T10:19:23.665Z,16.31
2023-04-23T10:22:05.126Z,16.43
2023-04-23T10:24:41.812Z,15.83
2023-04-23T10:27:28.499Z,16.58
2023-04-23T10:30:08.692Z,14.78
2023-04-23T10:32:38.809Z,16.20
2023-04-23T10:35:09.821Z,16.31
2023-04-23T10:37:40.557Z,16.01
2023-04-23T10:40:17.168Z,16.14
2023-04-23T10:42:47.323Z,16.84
2023-04-23T10:47:50.712Z,16.91
2023-04-23T10:50:22.590Z,17.02
2023-04-23T10:52:54.697Z,16.14
2023-04-23T10:55:29.291Z,16.31
2023-04-23T10:58:04.345Z,16.93
2023-04-23T11:00:46.438Z,16.74
2023-04-23T11:03:43.069Z,17.57
2023-04-23T11:06:16.610Z,17.10
2023-04-23T11:08:56.841Z,16.60
2023-04-23T11:11:41.103Z,17.38
2023-04-23T11:14:15.601Z,18.33
2023-04-23T11:16:45.283Z,17.73
2023-04-23T11:19:18.361Z,17.06
2023-04-23T11:21:59.831Z,18.01
2023-04-23T11:24:30.963Z,17.89
2023-04-23T11:27:03.086Z,17.29
2023-04-23T11:29:32.462Z,16.63
2023-04-23T11:32:05.469Z,16.37
2023-04-23T11:34:35.175Z,18.06
2023-04-23T11:37:05.988Z,17.85
2023-04-23T11:39:35.197Z,18.23
2023-04-23T11:42:09.165Z,18.05
2023-04-23T11:44:41.856Z,19.01
2023-04-23T11:47:12.824Z,18.31
2023-04-23T11:49:44.378Z,18.11
2023-04-23T11:52:15.709Z,17.99
2023-04-23T11:54:45.449Z,17.15
2023-04-23T11:57:17.684Z,17.83
2023-04-23T11:59:46.890Z,18.68
2023-04-23T12:02:16.584Z,19.16
2023-04-23T12:04:45.876Z,18.78
2023-04-23T12:07:25.859Z,18.42
2023-04-23T12:10:01.108Z,18.73
2023-04-23T12:12:37.001Z,19.65
2023-04-23T12:15:07.237Z,19.82
2023-04-23T12:17:36.636Z,19.76
2023-04-23T12:20:22.505Z,19.50
2023-04-23T12:22:52.116Z,18.82
2023-04-23T12:25:24.799Z,19.43
2023-04-23T12:28:01.096Z,18.87
2023-04-23T12:30:35.373Z,19.36
2023-04-23T12:33:06.669Z,19.09
2023-04-23T12:35:43.113Z,18.95
2023-04-23T12:38:24.520Z,19.16
2023-04-23T12:40:54.166Z,18.75
2023-04-23T12:43:25.951Z,18.79
2023-04-23T12:45:57.567Z,20.14
2023-04-23T12:48:26.861Z,19.98
2023-04-23T12:51:01.111Z,20.13
2023-04-23T12:53:37.268Z,19.93
2023-04-23T12:56:10.672Z,20.17
2023-04-23T12:58:45.925Z,20.18
2023-04-23T13:01:21.563Z,20.56
2023-04-23T13:03:52.250Z,21.30
2023-04-23T13:06:27.059Z,21.21
2023-04-23T13:09:03.983Z,20.27
2023-04-23T13:11:39.612Z,18.63
2023-04-23T13:14:18.874Z,18.36
2023-04-23T13:16:49.731Z,17.94
2023-04-23T13:19:31.192Z,18.17
2023-04-23T13:22:07.357Z,18.46
2023-04-23T13:24:41.718Z,18.75
2023-04-23T13:27:19.823Z,18.93
2023-04-23T13:29:56.172Z,19.04
2023-04-23T13:32:34.862Z,21.29
2023-04-23T13:35:21.886Z,19.86
2023-04-23T13:38:10.849Z,21.75
2023-04-23T13:40:46.061Z,20.99
2023-04-23T13:43:19.330Z,20.74
2023-04-23T13:45:55.885Z,20.08
2023-04-23T13:48:32.290Z,18.52
2023-04-23T13:51:13.529Z,18.30
2023-04-23T13:53:55.221Z,18.50
2023-04-23T13:56:32.462Z,21.11
2023-04-23T13:59:18.803Z,20.79
2023-04-23T14:01:53.818Z,20.13
2023-04-23T14:04:32.707Z,19.93
2023-04-23T14:07:13.915Z,20.35
2023-04-23T14:09:53.375Z,20.30
2023-04-23T14:12:27.286Z,20.08
2023-04-23T14:14:56.522Z,20.06
2023-04-23T14:17:27.185Z,19.94
2023-04-23T14:19:56.333Z,20.13
2023-04-23T14:22:59.167Z,19.86
2023-04-23T14:25:36.545Z,19.80
2023-04-23T14:28:24.771Z,20.69
2023-04-23T14:30:57.666Z,20.94
2023-04-23T14:33:28.640Z,20.03
2023-04-23T14:35:58.043Z,18.95
2023-04-23T14:38:27.674Z,19.18
2023-04-23T14:40:57.728Z,19.01
2023-04-23T14:43:27.170Z,18.61
2023-04-23T14:45:56.358Z,18.33
2023-04-23T14:48:34.721Z,18.16
2023-04-23T14:51:05.204Z,17.57
2023-04-23T14:53:55.319Z,16.28
2023-04-23T14:56:27.238Z,15.67
2023-04-23T14:59:00.786Z,15.46
2023-04-23T15:01:32.437Z,14.86
2023-04-23T15:04:06.771Z,14.23
2023-04-23T15:06:36.693Z,13.86
2023-04-23T15:13:51.269Z,13.58
2023-04-23T15:19:15.031Z,13.89
2023-04-23T15:21:47.275Z,13.66
2023-04-23T15:24:37.685Z,14.84
2023-04-23T15:27:08.321Z,15.12
2023-04-23T15:29:48.062Z,14.90
2023-04-23T15:32:18.966Z,14.57
2023-04-23T15:34:54.411Z,15.50
2023-04-23T15:37:24.805Z,15.41
2023-04-23T15:39:54.047Z,15.27
2023-04-23T15:42:24.965Z,15.35
2023-04-23T15:44:55.823Z,15.35
2023-04-23T15:47:25.838Z,15.91
2023-04-23T15:50:01.377Z,16.11
2023-04-23T15:52:31.115Z,16.01
2023-04-23T15:55:10.728Z,15.69
2023-04-23T15:57:39.932Z,15.03
2023-04-23T16:00:22.256Z,15.10
2023-04-23T16:02:55.133Z,15.47
2023-04-23T16:05:26.264Z,15.96
2023-04-23T16:07:55.420Z,16.46
2023-04-23T16:10:29.604Z,15.95
2023-04-23T16:12:59.729Z,15.86
2023-04-23T16:15:29.277Z,16.14
2023-04-23T16:18:00.315Z,16.18
2023-04-23T16:20:31.394Z,16.17
2023-04-23T16:23:01.527Z,16.17
2023-04-23T16:25:34.441Z,16.06
2023-04-23T16:28:06.976Z,15.84
2023-04-23T16:30:38.367Z,15.50
2023-04-23T16:33:11.716Z,15.67
2023-04-23T16:35:42.866Z,15.51
2023-04-23T16:38:16.333Z,15.29
2023-04-23T16:40:47.335Z,15.20
2023-04-23T16:43:16.757Z,15.13
2023-04-23T16:45:46.497Z,15.02
2023-04-23T16:48:19.932Z,15.19
2023-04-23T16:50:51.718Z,15.17
2023-04-23T16:53:21.296Z,15.09
2023-04-23T16:55:51.652Z,15.09
2023-04-23T16:58:22.918Z,14.69
2023-04-23T17:00:56.166Z,14.62
2023-04-23T17:03:27.028Z,14.63
2023-04-23T17:06:12.286Z,14.34
2023-04-23T17:08:43.329Z,13.94
2023-04-23T17:11:12.801Z,13.73
2023-04-23T17:13:44.452Z,13.66
2023-04-23T17:16:13.945Z,13.70
2023-04-23T17:18:45.762Z,13.48
2023-04-23T17:21:16.697Z,13.48
2023-04-23T17:23:46.407Z,13.63
2023-04-23T17:26:17.072Z,13.61
2023-04-23T17:28:46.458Z,13.39
2023-04-23T17:31:16.335Z,13.41
2023-04-23T17:33:49.463Z,13.36
2023-04-23T17:36:20.581Z,13.36
2023-04-23T17:38:50.129Z,13.32
2023-04-23T17:41:19.449Z,13.46
2023-04-23T17:43:49.374Z,13.25
2023-04-23T17:46:18.836Z,13.10
2023-04-23T17:48:48.741Z,13.15
2023-04-23T17:51:19.533Z,13.15
2023-04-23T17:53:50.865Z,13.31
2023-04-23T17:56:20.323Z,13.53
2023-04-23T17:58:49.581Z,13.64
2023-04-23T18:01:19.379Z,13.54
2023-04-23T18:03:49.233Z,13.54
2023-04-23T18:06:21.008Z,13.44
2023-04-23T18:08:50.463Z,13.54
2023-04-23T18:11:20.816Z,13.57
2023-04-23T18:13:53.495Z,13.51
2023-04-23T18:16:22.868Z,13.52
2023-04-23T18:18:52.707Z,13.32
2023-04-23T18:21:31.251Z,13.27
2023-04-23T18:24:02.228Z,13.15
2023-04-23T18:26:38.786Z,13.03
2023-04-23T18:29:08.407Z,12.94
2023-04-23T18:31:38.139Z,13.01
2023-04-23T18:34:11.521Z,12.88
2023-04-23T18:36:45.077Z,12.71
2023-04-23T18:39:18.003Z,12.78
2023-04-23T18:41:48.684Z,12.69
2023-04-23T18:44:18.485Z,12.65
2023-04-23T18:46:48.455Z,12.62
2023-04-23T18:49:45.628Z,12.57
2023-04-23T18:52:16.490Z,12.51
2023-04-23T18:54:45.766Z,12.59
2023-04-23T18:57:15.048Z,12.63
2023-04-23T18:59:44.695Z,12.69
2023-04-23T19:02:21.415Z,12.66
2023-04-23T19:04:54.401Z,12.56
2023-04-23T19:07:25.679Z,12.59
2023-04-23T19:09:54.998Z,12.52
2023-04-23T19:12:24.388Z,12.51
2023-04-23T19:14:53.878Z,12.44
2023-04-23T19:17:26.662Z,12.37
2023-04-23T19:19:57.597Z,12.27
2023-04-23T19:22:29.246Z,12.30
2023-04-23T19:24:58.726Z,12.25
2023-04-23T19:27:29.158Z,12.16
2023-04-23T19:30:00.887Z,12.14
2023-04-23T19:32:31.024Z,12.13
2023-04-23T19:35:00.811Z,12.20
2023-04-23T19:37:32.176Z,12.20
2023-04-23T19:40:02.564Z,12.18
2023-04-23T19:42:35.064Z,12.18
2023-04-23T19:45:04.733Z,12.19
2023-04-23T19:47:38.609Z,12.10
2023-04-23T19:50:14.958Z,12.11
2023-04-23T19:52:45.898Z,12.04
2023-04-23T19:55:18.116Z,11.97
2023-04-23T19:57:49.507Z,11.96
2023-04-23T20:00:19.263Z,11.95
2023-04-23T20:02:50.004Z,12.02
2023-04-23T20:05:20.303Z,11.97
2023-04-23T20:07:51.279Z,11.73
2023-04-23T20:10:20.872Z,11.73
2023-04-23T20:13:00.250Z,11.86
2023-04-23T20:15:29.510Z,11.89
2023-04-23T20:17:58.931Z,11.89
2023-04-23T20:20:28.467Z,11.94
2023-04-23T20:23:03.517Z,11.95
2023-04-23T20:25:33.749Z,12.01
2023-04-23T20:28:04.409Z,11.94
2023-04-23T20:30:33.644Z,11.92
2023-04-23T20:33:03.346Z,11.94
2023-04-23T20:35:33.728Z,12.06
2023-04-23T20:38:04.924Z,11.94
2023-04-23T20:40:34.741Z,12.04
2023-04-23T20:43:04.599Z,12.01
2023-04-23T20:45:34.840Z,11.96
2023-04-23T20:48:05.499Z,11.90
2023-04-23T20:50:35.182Z,11.90
2023-04-23T20:53:06.982Z,11.90
2023-04-23T20:55:36.945Z,11.95
2023-04-23T20:58:25.273Z,11.97
2023-04-23T21:00:55.315Z,11.98
2023-04-23T21:03:33.157Z,11.95
2023-04-23T21:06:03.066Z,11.91
2023-04-23T21:08:42.900Z,11.95
2023-04-23T21:11:14.775Z,11.91
2023-04-23T21:13:44.641Z,11.95
2023-04-23T21:16:15.195Z,11.86
2023-04-23T21:18:44.881Z,11.85
2023-04-23T21:21:14.639Z,11.84
2023-04-23T21:23:45.443Z,11.91
2023-04-23T21:26:15.202Z,11.91
2023-04-23T21:28:50.621Z,11.89
2023-04-23T21:31:29.017Z,11.92
2023-04-23T21:34:00.581Z,11.92
2023-04-23T21:36:30.249Z,11.95
2023-04-23T21:39:01.896Z,11.98
2023-04-23T21:41:31.829Z,11.90
2023-04-23T21:44:01.086Z,11.94
2023-04-23T21:46:34.263Z,12.01
2023-04-23T21:49:06.017Z,11.97
2023-04-23T21:51:38.607Z,11.94
2023-04-23T21:54:09.400Z,11.88
2023-04-23T21:56:39.222Z,11.98
2023-04-23T21:59:08.656Z,11.88
2023-04-23T22:01:39.361Z,11.95
2023-04-23T22:04:08.882Z,12.06
2023-04-23T22:06:38.561Z,12.20
2023-04-23T22:09:10.519Z,12.15
2023-04-23T22:11:40.950Z,12.11
2023-04-23T22:14:11.706Z,12.29
2023-04-23T22:16:41.356Z,12.40
2023-04-23T22:19:12.165Z,12.47
2023-04-23T22:21:41.548Z,12.64
2023-04-23T22:24:13.393Z,12.59
2023-04-23T22:26:44.486Z,12.69
2023-04-23T22:29:17.986Z,12.52
2023-04-23T22:31:47.463Z,12.66
2023-04-23T22:34:19.335Z,12.83
2023-04-23T22:36:48.959Z,12.87
2023-04-23T22:39:19.923Z,12.76
2023-04-23T22:41:49.134Z,12.73
2023-04-23T22:44:18.667Z,12.82
2023-04-23T22:46:47.983Z,12.73
2023-04-23T22:49:19.540Z,12.81
2023-04-23T22:51:54.106Z,12.83
2023-04-23T22:54:24.922Z,12.89
2023-04-23T22:56:54.189Z,12.84
2023-04-23T22:59:25.819Z,12.80
2023-04-23T23:01:54.992Z,12.78
2023-04-23T23:04:24.473Z,12.76
2023-04-23T23:06:53.733Z,12.84
2023-04-23T23:09:24.430Z,12.85
2023-04-23T23:11:53.654Z,12.98
2023-04-23T23:14:23.208Z,12.95
2023-04-23T23:16:52.443Z,12.88
2023-04-23T23:19:21.855Z,12.82
2023-04-23T23:21:51.852Z,12.79
2023-04-23T23:24:23.170Z,12.72
2023-04-23T23:26:53.762Z,12.69
2023-04-23T23:29:22.991Z,12.68
2023-04-23T23:31:52.562Z,12.67
2023-04-23T23:34:22.263Z,12.70
2023-04-23T23:36:51.900Z,12.60
2023-04-23T23:39:21.278Z,12.51
2023-04-23T23:41:52.116Z,12.60
2023-04-23T23:44:21.711Z,12.67
2023-04-23T23:46:52.097Z,12.78
2023-04-23T23:49:21.931Z,12.76
2023-04-23T23:51:51.367Z,12.83
2023-04-23T23:54:20.935Z,12.68
2023-04-23T23:56:50.488Z,12.54
2023-04-23T23:59:21.252Z,12.42
